sensor_id;sensor_type;location;lat;lon;timestamp;P1;durP1;ratioP1;P2;durP2;ratioP2
13026;SDS011;6580;42.680;23.324;2023-12-20T00:00:08;62.17;;;41.67;;
13026;SDS011;6580;42.680;23.324;2023-12-20T00:02:35;65.07;;;41.00;;
13026;SDS011;6580;42.680;23.324;2023-12-20T00:05:03;63.63;;;42.80;;
13026;SDS011;6580;42.680;23.324;2023-12-20T00:07:30;65.23;;;41.17;;
13026;SDS011;6580;42.680;23.324;2023-12-20T00:10:00;58.90;;;41.33;;
13026;SDS011;6580;42.680;23.324;2023-12-20T00:12:28;59.40;;;41.63;;
13026;SDS011;6580;42.680;23.324;2023-12-20T00:14:56;59.47;;;42.43;;
13026;SDS011;6580;42.680;23.324;2023-12-20T00:17:23;64.07;;;44.23;;
13026;SDS011;6580;42.680;23.324;2023-12-20T00:19:50;60.43;;;42.30;;
13026;SDS011;6580;42.680;23.324;2023-12-20T00:22:17;70.10;;;46.27;;
13026;SDS011;6580;42.680;23.324;2023-12-20T00:24:44;83.57;;;52.17;;
13026;SDS011;6580;42.680;23.324;2023-12-20T00:27:12;69.90;;;46.83;;
13026;SDS011;6580;42.680;23.324;2023-12-20T00:29:39;73.17;;;46.47;;
13026;SDS011;6580;42.680;23.324;2023-12-20T00:32:13;84.13;;;54.47;;
13026;SDS011;6580;42.680;23.324;2023-12-20T00:34:39;89.27;;;54.90;;
13026;SDS011;6580;42.680;23.324;2023-12-20T00:37:07;84.40;;;54.80;;
13026;SDS011;6580;42.680;23.324;2023-12-20T00:39:35;89.50;;;56.10;;
13026;SDS011;6580;42.680;23.324;2023-12-20T00:42:08;88.57;;;56.03;;
13026;SDS011;6580;42.680;23.324;2023-12-20T00:44:39;81.63;;;53.80;;
13026;SDS011;6580;42.680;23.324;2023-12-20T00:47:08;79.60;;;50.00;;
13026;SDS011;6580;42.680;23.324;2023-12-20T00:49:37;74.07;;;50.37;;
13026;SDS011;6580;42.680;23.324;2023-12-20T00:52:04;77.73;;;51.80;;
13026;SDS011;6580;42.680;23.324;2023-12-20T00:54:32;82.10;;;52.57;;
13026;SDS011;6580;42.680;23.324;2023-12-20T00:56:59;77.73;;;51.93;;
13026;SDS011;6580;42.680;23.324;2023-12-20T00:59:26;90.67;;;54.90;;
13026;SDS011;6580;42.680;23.324;2023-12-20T01:01:54;78.17;;;51.00;;
13026;SDS011;6580;42.680;23.324;2023-12-20T01:04:21;76.80;;;49.60;;
13026;SDS011;6580;42.680;23.324;2023-12-20T01:06:51;74.40;;;49.80;;
13026;SDS011;6580;42.680;23.324;2023-12-20T01:09:19;75.57;;;50.50;;
13026;SDS011;6580;42.680;23.324;2023-12-20T01:11:48;74.77;;;49.17;;
13026;SDS011;6580;42.680;23.324;2023-12-20T01:14:17;74.23;;;48.17;;
13026;SDS011;6580;42.680;23.324;2023-12-20T01:16:45;78.10;;;52.37;;
13026;SDS011;6580;42.680;23.324;2023-12-20T01:19:15;79.27;;;52.17;;
13026;SDS011;6580;42.680;23.324;2023-12-20T01:21:42;87.83;;;54.60;;
13026;SDS011;6580;42.680;23.324;2023-12-20T01:24:10;101.53;;;59.87;;
13026;SDS011;6580;42.680;23.324;2023-12-20T01:26:37;101.20;;;58.50;;
13026;SDS011;6580;42.680;23.324;2023-12-20T01:29:04;102.70;;;62.10;;
13026;SDS011;6580;42.680;23.324;2023-12-20T01:31:32;110.90;;;66.50;;
13026;SDS011;6580;42.680;23.324;2023-12-20T01:33:59;110.43;;;65.53;;
13026;SDS011;6580;42.680;23.324;2023-12-20T01:36:29;108.53;;;64.00;;
13026;SDS011;6580;42.680;23.324;2023-12-20T01:38:56;105.53;;;64.33;;
13026;SDS011;6580;42.680;23.324;2023-12-20T01:41:23;106.77;;;62.73;;
13026;SDS011;6580;42.680;23.324;2023-12-20T01:43:50;100.60;;;61.03;;
13026;SDS011;6580;42.680;23.324;2023-12-20T01:46:20;98.33;;;60.23;;
13026;SDS011;6580;42.680;23.324;2023-12-20T01:48:50;101.63;;;61.10;;
13026;SDS011;6580;42.680;23.324;2023-12-20T01:51:23;93.03;;;55.27;;
13026;SDS011;6580;42.680;23.324;2023-12-20T01:53:55;90.20;;;56.27;;
13026;SDS011;6580;42.680;23.324;2023-12-20T01:56:24;92.53;;;58.90;;
13026;SDS011;6580;42.680;23.324;2023-12-20T01:58:53;110.90;;;67.80;;
13026;SDS011;6580;42.680;23.324;2023-12-20T02:01:20;107.03;;;67.83;;
13026;SDS011;6580;42.680;23.324;2023-12-20T02:03:47;124.73;;;71.77;;
13026;SDS011;6580;42.680;23.324;2023-12-20T02:06:16;83.50;;;53.77;;
13026;SDS011;6580;42.680;23.324;2023-12-20T02:08:44;89.03;;;54.10;;
13026;SDS011;6580;42.680;23.324;2023-12-20T02:11:13;85.30;;;57.27;;
13026;SDS011;6580;42.680;23.324;2023-12-20T02:13:40;110.53;;;65.47;;
13026;SDS011;6580;42.680;23.324;2023-12-20T02:16:07;129.07;;;78.67;;
13026;SDS011;6580;42.680;23.324;2023-12-20T02:18:35;134.47;;;78.57;;
13026;SDS011;6580;42.680;23.324;2023-12-20T02:21:06;122.90;;;71.17;;
13026;SDS011;6580;42.680;23.324;2023-12-20T02:23:36;111.63;;;68.93;;
13026;SDS011;6580;42.680;23.324;2023-12-20T02:26:04;110.17;;;66.00;;
13026;SDS011;6580;42.680;23.324;2023-12-20T02:28:34;108.17;;;64.30;;
13026;SDS011;6580;42.680;23.324;2023-12-20T02:31:01;119.23;;;69.37;;
13026;SDS011;6580;42.680;23.324;2023-12-20T02:33:29;139.50;;;81.77;;
13026;SDS011;6580;42.680;23.324;2023-12-20T02:35:57;151.97;;;84.83;;
13026;SDS011;6580;42.680;23.324;2023-12-20T02:38:24;146.63;;;81.63;;
13026;SDS011;6580;42.680;23.324;2023-12-20T02:40:52;134.27;;;80.27;;
13026;SDS011;6580;42.680;23.324;2023-12-20T02:43:23;134.63;;;78.10;;
13026;SDS011;6580;42.680;23.324;2023-12-20T02:45:50;129.67;;;75.23;;
13026;SDS011;6580;42.680;23.324;2023-12-20T02:48:17;151.27;;;84.00;;
13026;SDS011;6580;42.680;23.324;2023-12-20T02:50:45;137.00;;;82.30;;
13026;SDS011;6580;42.680;23.324;2023-12-20T02:53:13;160.40;;;90.23;;
13026;SDS011;6580;42.680;23.324;2023-12-20T02:55:40;151.10;;;84.73;;
13026;SDS011;6580;42.680;23.324;2023-12-20T02:58:08;144.80;;;81.17;;
13026;SDS011;6580;42.680;23.324;2023-12-20T03:00:36;146.30;;;83.93;;
13026;SDS011;6580;42.680;23.324;2023-12-20T03:03:04;139.07;;;81.43;;
13026;SDS011;6580;42.680;23.324;2023-12-20T03:05:31;145.20;;;81.70;;
13026;SDS011;6580;42.680;23.324;2023-12-20T03:08:00;136.40;;;78.30;;
13026;SDS011;6580;42.680;23.324;2023-12-20T03:10:28;132.67;;;76.97;;
13026;SDS011;6580;42.680;23.324;2023-12-20T03:12:55;119.27;;;68.03;;
13026;SDS011;6580;42.680;23.324;2023-12-20T03:15:26;119.50;;;69.23;;
13026;SDS011;6580;42.680;23.324;2023-12-20T03:17:52;121.90;;;68.60;;
13026;SDS011;6580;42.680;23.324;2023-12-20T03:20:20;116.00;;;67.37;;
13026;SDS011;6580;42.680;23.324;2023-12-20T03:22:49;121.23;;;67.30;;
13026;SDS011;6580;42.680;23.324;2023-12-20T03:25:17;120.83;;;68.33;;
13026;SDS011;6580;42.680;23.324;2023-12-20T03:27:45;107.63;;;64.73;;
13026;SDS011;6580;42.680;23.324;2023-12-20T03:30:12;117.83;;;67.43;;
13026;SDS011;6580;42.680;23.324;2023-12-20T03:32:43;120.77;;;69.23;;
13026;SDS011;6580;42.680;23.324;2023-12-20T03:35:11;115.63;;;67.13;;
13026;SDS011;6580;42.680;23.324;2023-12-20T03:37:40;122.03;;;67.37;;
13026;SDS011;6580;42.680;23.324;2023-12-20T03:40:08;110.93;;;65.30;;
13026;SDS011;6580;42.680;23.324;2023-12-20T03:42:35;118.77;;;63.67;;
13026;SDS011;6580;42.680;23.324;2023-12-20T03:45:02;114.43;;;68.03;;
13026;SDS011;6580;42.680;23.324;2023-12-20T03:47:31;117.47;;;68.23;;
13026;SDS011;6580;42.680;23.324;2023-12-20T03:50:00;114.83;;;68.77;;
13026;SDS011;6580;42.680;23.324;2023-12-20T03:52:27;117.83;;;68.77;;
13026;SDS011;6580;42.680;23.324;2023-12-20T03:54:54;121.93;;;65.93;;
13026;SDS011;6580;42.680;23.324;2023-12-20T03:57:21;115.00;;;68.43;;
13026;SDS011;6580;42.680;23.324;2023-12-20T03:59:50;129.47;;;69.30;;
13026;SDS011;6580;42.680;23.324;2023-12-20T04:02:19;108.83;;;64.43;;
13026;SDS011;6580;42.680;23.324;2023-12-20T04:04:47;114.23;;;67.30;;
13026;SDS011;6580;42.680;23.324;2023-12-20T04:07:18;111.17;;;64.73;;
13026;SDS011;6580;42.680;23.324;2023-12-20T04:09:46;108.73;;;61.33;;
13026;SDS011;6580;42.680;23.324;2023-12-20T04:12:13;110.63;;;64.83;;
13026;SDS011;6580;42.680;23.324;2023-12-20T04:14:41;113.50;;;64.47;;
13026;SDS011;6580;42.680;23.324;2023-12-20T04:17:09;113.97;;;65.23;;
13026;SDS011;6580;42.680;23.324;2023-12-20T04:19:39;108.97;;;62.83;;
13026;SDS011;6580;42.680;23.324;2023-12-20T04:22:08;112.83;;;63.57;;
13026;SDS011;6580;42.680;23.324;2023-12-20T04:24:41;118.33;;;62.60;;
13026;SDS011;6580;42.680;23.324;2023-12-20T04:27:08;107.93;;;57.60;;
13026;SDS011;6580;42.680;23.324;2023-12-20T04:29:39;108.17;;;60.53;;
13026;SDS011;6580;42.680;23.324;2023-12-20T04:32:06;107.07;;;58.03;;
13026;SDS011;6580;42.680;23.324;2023-12-20T04:34:34;103.17;;;59.27;;
13026;SDS011;6580;42.680;23.324;2023-12-20T04:37:02;106.27;;;59.67;;
13026;SDS011;6580;42.680;23.324;2023-12-20T04:39:30;109.83;;;59.17;;
13026;SDS011;6580;42.680;23.324;2023-12-20T04:41:59;95.17;;;56.43;;
13026;SDS011;6580;42.680;23.324;2023-12-20T04:44:29;97.00;;;54.37;;
13026;SDS011;6580;42.680;23.324;2023-12-20T04:46:59;93.57;;;53.37;;
13026;SDS011;6580;42.680;23.324;2023-12-20T04:49:27;96.40;;;52.40;;
13026;SDS011;6580;42.680;23.324;2023-12-20T04:51:56;90.13;;;50.87;;
13026;SDS011;6580;42.680;23.324;2023-12-20T04:54:23;95.80;;;54.60;;
13026;SDS011;6580;42.680;23.324;2023-12-20T04:56:49;100.00;;;51.67;;
13026;SDS011;6580;42.680;23.324;2023-12-20T04:59:21;85.70;;;48.33;;
13026;SDS011;6580;42.680;23.324;2023-12-20T05:01:53;78.73;;;49.77;;
13026;SDS011;6580;42.680;23.324;2023-12-20T05:04:20;84.43;;;50.13;;
13026;SDS011;6580;42.680;23.324;2023-12-20T05:06:48;82.77;;;47.50;;
13026;SDS011;6580;42.680;23.324;2023-12-20T05:09:16;79.80;;;45.87;;
13026;SDS011;6580;42.680;23.324;2023-12-20T05:11:43;83.97;;;47.33;;
13026;SDS011;6580;42.680;23.324;2023-12-20T05:14:10;94.73;;;48.50;;
13026;SDS011;6580;42.680;23.324;2023-12-20T05:16:39;104.33;;;51.93;;
13026;SDS011;6580;42.680;23.324;2023-12-20T05:19:06;103.47;;;52.10;;
13026;SDS011;6580;42.680;23.324;2023-12-20T05:21:33;86.30;;;50.07;;
13026;SDS011;6580;42.680;23.324;2023-12-20T05:24:01;101.37;;;53.73;;
13026;SDS011;6580;42.680;23.324;2023-12-20T05:26:28;108.27;;;54.33;;
13026;SDS011;6580;42.680;23.324;2023-12-20T05:28:55;90.10;;;51.93;;
13026;SDS011;6580;42.680;23.324;2023-12-20T05:31:23;105.97;;;53.57;;
13026;SDS011;6580;42.680;23.324;2023-12-20T05:33:52;96.73;;;55.00;;
13026;SDS011;6580;42.680;23.324;2023-12-20T05:36:18;110.03;;;55.70;;
13026;SDS011;6580;42.680;23.324;2023-12-20T05:38:45;129.20;;;57.93;;
13026;SDS011;6580;42.680;23.324;2023-12-20T05:41:12;122.27;;;55.57;;
13026;SDS011;6580;42.680;23.324;2023-12-20T05:43:39;132.83;;;56.07;;
13026;SDS011;6580;42.680;23.324;2023-12-20T05:46:07;115.93;;;56.23;;
13026;SDS011;6580;42.680;23.324;2023-12-20T05:48:36;121.27;;;57.50;;
13026;SDS011;6580;42.680;23.324;2023-12-20T05:51:05;119.73;;;57.90;;
13026;SDS011;6580;42.680;23.324;2023-12-20T05:53:33;141.37;;;59.97;;
13026;SDS011;6580;42.680;23.324;2023-12-20T05:56:00;143.73;;;58.23;;
13026;SDS011;6580;42.680;23.324;2023-12-20T05:58:27;149.90;;;60.77;;
13026;SDS011;6580;42.680;23.324;2023-12-20T06:00:54;153.37;;;61.07;;
13026;SDS011;6580;42.680;23.324;2023-12-20T06:03:21;151.43;;;58.53;;
13026;SDS011;6580;42.680;23.324;2023-12-20T06:05:48;122.93;;;56.63;;
13026;SDS011;6580;42.680;23.324;2023-12-20T06:08:17;158.07;;;60.27;;
13026;SDS011;6580;42.680;23.324;2023-12-20T06:10:44;186.67;;;68.33;;
13026;SDS011;6580;42.680;23.324;2023-12-20T06:13:11;150.60;;;65.30;;
13026;SDS011;6580;42.680;23.324;2023-12-20T06:15:39;125.70;;;60.73;;
13026;SDS011;6580;42.680;23.324;2023-12-20T06:18:07;162.57;;;63.20;;
13026;SDS011;6580;42.680;23.324;2023-12-20T06:20:35;152.67;;;63.93;;
13026;SDS011;6580;42.680;23.324;2023-12-20T06:23:03;140.77;;;57.93;;
13026;SDS011;6580;42.680;23.324;2023-12-20T06:25:32;144.03;;;59.27;;
13026;SDS011;6580;42.680;23.324;2023-12-20T06:27:59;128.80;;;60.23;;
13026;SDS011;6580;42.680;23.324;2023-12-20T06:30:26;164.30;;;61.83;;
13026;SDS011;6580;42.680;23.324;2023-12-20T06:32:55;142.43;;;59.50;;
13026;SDS011;6580;42.680;23.324;2023-12-20T06:35:23;117.07;;;56.60;;
13026;SDS011;6580;42.680;23.324;2023-12-20T06:37:50;122.93;;;57.13;;
13026;SDS011;6580;42.680;23.324;2023-12-20T06:40:17;130.57;;;59.57;;
13026;SDS011;6580;42.680;23.324;2023-12-20T06:42:46;113.87;;;58.90;;
13026;SDS011;6580;42.680;23.324;2023-12-20T06:45:13;121.00;;;55.10;;
13026;SDS011;6580;42.680;23.324;2023-12-20T06:47:40;126.90;;;58.37;;
13026;SDS011;6580;42.680;23.324;2023-12-20T06:50:07;115.13;;;56.77;;
13026;SDS011;6580;42.680;23.324;2023-12-20T06:52:37;123.90;;;58.37;;
13026;SDS011;6580;42.680;23.324;2023-12-20T06:55:05;124.63;;;54.57;;
13026;SDS011;6580;42.680;23.324;2023-12-20T06:57:32;112.57;;;55.03;;
13026;SDS011;6580;42.680;23.324;2023-12-20T07:00:01;123.33;;;55.90;;
13026;SDS011;6580;42.680;23.324;2023-12-20T07:02:29;119.90;;;54.30;;
13026;SDS011;6580;42.680;23.324;2023-12-20T07:04:56;110.80;;;52.60;;
13026;SDS011;6580;42.680;23.324;2023-12-20T07:07:24;124.33;;;58.10;;
13026;SDS011;6580;42.680;23.324;2023-12-20T07:09:51;116.73;;;55.83;;
13026;SDS011;6580;42.680;23.324;2023-12-20T07:12:18;124.97;;;58.17;;
13026;SDS011;6580;42.680;23.324;2023-12-20T07:14:45;107.30;;;53.37;;
13026;SDS011;6580;42.680;23.324;2023-12-20T07:17:14;111.33;;;54.83;;
13026;SDS011;6580;42.680;23.324;2023-12-20T07:19:41;114.27;;;57.77;;
13026;SDS011;6580;42.680;23.324;2023-12-20T07:22:08;110.10;;;54.83;;
13026;SDS011;6580;42.680;23.324;2023-12-20T07:24:35;104.50;;;52.40;;
13026;SDS011;6580;42.680;23.324;2023-12-20T07:27:02;103.97;;;53.03;;
13026;SDS011;6580;42.680;23.324;2023-12-20T07:29:29;121.07;;;55.67;;
13026;SDS011;6580;42.680;23.324;2023-12-20T07:31:56;111.93;;;55.63;;
13026;SDS011;6580;42.680;23.324;2023-12-20T07:34:25;118.63;;;56.70;;
13026;SDS011;6580;42.680;23.324;2023-12-20T07:36:52;109.47;;;53.93;;
13026;SDS011;6580;42.680;23.324;2023-12-20T07:39:22;120.23;;;54.57;;
13026;SDS011;6580;42.680;23.324;2023-12-20T07:41:49;108.63;;;54.30;;
13026;SDS011;6580;42.680;23.324;2023-12-20T07:44:16;116.23;;;56.20;;
13026;SDS011;6580;42.680;23.324;2023-12-20T07:46:43;108.67;;;53.13;;
13026;SDS011;6580;42.680;23.324;2023-12-20T07:49:10;113.70;;;57.03;;
13026;SDS011;6580;42.680;23.324;2023-12-20T07:51:38;113.90;;;54.70;;
13026;SDS011;6580;42.680;23.324;2023-12-20T07:54:05;92.50;;;51.43;;
13026;SDS011;6580;42.680;23.324;2023-12-20T07:56:33;98.23;;;51.90;;
13026;SDS011;6580;42.680;23.324;2023-12-20T07:59:00;101.97;;;55.47;;
13026;SDS011;6580;42.680;23.324;2023-12-20T08:01:27;107.87;;;53.37;;
13026;SDS011;6580;42.680;23.324;2023-12-20T08:03:54;118.50;;;58.30;;
13026;SDS011;6580;42.680;23.324;2023-12-20T08:06:41;107.13;;;55.30;;
13026;SDS011;6580;42.680;23.324;2023-12-20T08:09:09;104.83;;;56.87;;
13026;SDS011;6580;42.680;23.324;2023-12-20T08:11:36;106.43;;;53.43;;
13026;SDS011;6580;42.680;23.324;2023-12-20T08:14:03;106.03;;;53.77;;
13026;SDS011;6580;42.680;23.324;2023-12-20T08:16:30;96.97;;;52.60;;
13026;SDS011;6580;42.680;23.324;2023-12-20T08:18:57;103.47;;;52.67;;
13026;SDS011;6580;42.680;23.324;2023-12-20T08:21:25;98.10;;;52.10;;
13026;SDS011;6580;42.680;23.324;2023-12-20T08:23:54;93.50;;;51.13;;
13026;SDS011;6580;42.680;23.324;2023-12-20T08:26:21;97.10;;;51.90;;
13026;SDS011;6580;42.680;23.324;2023-12-20T08:28:49;100.93;;;53.13;;
13026;SDS011;6580;42.680;23.324;2023-12-20T08:31:16;99.47;;;50.67;;
13026;SDS011;6580;42.680;23.324;2023-12-20T08:33:44;97.63;;;50.60;;
13026;SDS011;6580;42.680;23.324;2023-12-20T08:36:13;97.73;;;52.23;;
13026;SDS011;6580;42.680;23.324;2023-12-20T08:38:40;97.03;;;53.10;;
13026;SDS011;6580;42.680;23.324;2023-12-20T08:41:08;90.50;;;50.07;;
13026;SDS011;6580;42.680;23.324;2023-12-20T08:43:35;92.60;;;52.03;;
13026;SDS011;6580;42.680;23.324;2023-12-20T08:46:05;89.57;;;51.67;;
13026;SDS011;6580;42.680;23.324;2023-12-20T08:48:32;85.07;;;49.47;;
13026;SDS011;6580;42.680;23.324;2023-12-20T08:50:59;92.43;;;51.77;;
13026;SDS011;6580;42.680;23.324;2023-12-20T08:53:25;86.57;;;51.07;;
13026;SDS011;6580;42.680;23.324;2023-12-20T08:55:52;91.60;;;51.90;;
13026;SDS011;6580;42.680;23.324;2023-12-20T08:58:22;93.70;;;50.67;;
13026;SDS011;6580;42.680;23.324;2023-12-20T09:00:49;88.70;;;50.03;;
13026;SDS011;6580;42.680;23.324;2023-12-20T09:03:16;92.13;;;52.70;;
13026;SDS011;6580;42.680;23.324;2023-12-20T09:05:43;90.63;;;53.30;;
13026;SDS011;6580;42.680;23.324;2023-12-20T09:08:09;93.70;;;54.20;;
13026;SDS011;6580;42.680;23.324;2023-12-20T09:10:37;83.60;;;49.00;;
13026;SDS011;6580;42.680;23.324;2023-12-20T09:13:05;79.60;;;48.03;;
13026;SDS011;6580;42.680;23.324;2023-12-20T09:15:34;75.87;;;49.37;;
13026;SDS011;6580;42.680;23.324;2023-12-20T09:18:01;86.57;;;50.07;;
13026;SDS011;6580;42.680;23.324;2023-12-20T09:20:28;79.67;;;45.70;;
13026;SDS011;6580;42.680;23.324;2023-12-20T09:22:55;82.10;;;46.63;;
13026;SDS011;6580;42.680;23.324;2023-12-20T09:25:22;91.27;;;51.47;;
13026;SDS011;6580;42.680;23.324;2023-12-20T09:27:51;86.13;;;48.27;;
13026;SDS011;6580;42.680;23.324;2023-12-20T09:30:18;75.77;;;46.17;;
13026;SDS011;6580;42.680;23.324;2023-12-20T09:32:47;69.60;;;44.90;;
13026;SDS011;6580;42.680;23.324;2023-12-20T09:35:13;67.63;;;42.67;;
13026;SDS011;6580;42.680;23.324;2023-12-20T09:37:40;72.10;;;42.20;;
13026;SDS011;6580;42.680;23.324;2023-12-20T09:40:11;73.57;;;41.70;;
13026;SDS011;6580;42.680;23.324;2023-12-20T09:42:42;77.07;;;44.77;;
13026;SDS011;6580;42.680;23.324;2023-12-20T09:45:17;99.73;;;51.43;;
13026;SDS011;6580;42.680;23.324;2023-12-20T09:47:48;79.53;;;43.53;;
13026;SDS011;6580;42.680;23.324;2023-12-20T09:50:17;87.50;;;44.53;;
13026;SDS011;6580;42.680;23.324;2023-12-20T09:52:46;81.17;;;42.90;;
13026;SDS011;6580;42.680;23.324;2023-12-20T09:55:17;91.03;;;45.37;;
13026;SDS011;6580;42.680;23.324;2023-12-20T09:57:46;89.20;;;44.93;;
13026;SDS011;6580;42.680;23.324;2023-12-20T10:00:16;89.67;;;43.30;;
13026;SDS011;6580;42.680;23.324;2023-12-20T10:02:45;89.50;;;44.33;;
13026;SDS011;6580;42.680;23.324;2023-12-20T10:05:18;86.40;;;43.00;;
13026;SDS011;6580;42.680;23.324;2023-12-20T10:07:52;79.60;;;41.97;;
13026;SDS011;6580;42.680;23.324;2023-12-20T10:10:19;77.87;;;42.90;;
13026;SDS011;6580;42.680;23.324;2023-12-20T10:13:01;72.97;;;41.37;;
13026;SDS011;6580;42.680;23.324;2023-12-20T10:15:29;75.00;;;41.93;;
13026;SDS011;6580;42.680;23.324;2023-12-20T10:17:57;76.93;;;41.40;;
13026;SDS011;6580;42.680;23.324;2023-12-20T10:20:26;71.50;;;40.37;;
13026;SDS011;6580;42.680;23.324;2023-12-20T10:22:54;74.93;;;40.53;;
13026;SDS011;6580;42.680;23.324;2023-12-20T10:25:21;79.67;;;41.53;;
13026;SDS011;6580;42.680;23.324;2023-12-20T10:27:49;90.00;;;45.97;;
13026;SDS011;6580;42.680;23.324;2023-12-20T10:30:16;84.67;;;47.50;;
13026;SDS011;6580;42.680;23.324;2023-12-20T10:32:43;87.23;;;46.43;;
13026;SDS011;6580;42.680;23.324;2023-12-20T10:35:11;76.93;;;43.50;;
13026;SDS011;6580;42.680;23.324;2023-12-20T10:37:41;78.93;;;42.10;;
13026;SDS011;6580;42.680;23.324;2023-12-20T10:40:09;74.10;;;42.50;;
13026;SDS011;6580;42.680;23.324;2023-12-20T10:42:37;71.30;;;42.20;;
13026;SDS011;6580;42.680;23.324;2023-12-20T10:45:08;69.27;;;43.03;;
13026;SDS011;6580;42.680;23.324;2023-12-20T10:47:35;75.13;;;43.93;;
13026;SDS011;6580;42.680;23.324;2023-12-20T10:50:04;84.40;;;43.17;;
13026;SDS011;6580;42.680;23.324;2023-12-20T10:52:32;76.67;;;43.97;;
13026;SDS011;6580;42.680;23.324;2023-12-20T10:55:04;72.27;;;42.13;;
13026;SDS011;6580;42.680;23.324;2023-12-20T10:57:32;72.10;;;43.07;;
13026;SDS011;6580;42.680;23.324;2023-12-20T11:00:02;77.47;;;43.33;;
13026;SDS011;6580;42.680;23.324;2023-12-20T11:02:31;73.27;;;42.77;;
13026;SDS011;6580;42.680;23.324;2023-12-20T11:05:06;68.80;;;40.90;;
13026;SDS011;6580;42.680;23.324;2023-12-20T11:07:43;70.00;;;42.10;;
13026;SDS011;6580;42.680;23.324;2023-12-20T11:10:19;75.43;;;42.63;;
13026;SDS011;6580;42.680;23.324;2023-12-20T11:12:52;79.20;;;43.23;;
13026;SDS011;6580;42.680;23.324;2023-12-20T11:15:22;76.67;;;44.10;;
13026;SDS011;6580;42.680;23.324;2023-12-20T11:17:54;81.27;;;42.90;;
13026;SDS011;6580;42.680;23.324;2023-12-20T11:20:22;79.93;;;44.37;;
13026;SDS011;6580;42.680;23.324;2023-12-20T11:22:53;81.63;;;44.60;;
13026;SDS011;6580;42.680;23.324;2023-12-20T11:25:23;75.93;;;44.17;;
13026;SDS011;6580;42.680;23.324;2023-12-20T11:28:09;76.27;;;43.47;;
13026;SDS011;6580;42.680;23.324;2023-12-20T11:30:40;83.67;;;42.73;;
13026;SDS011;6580;42.680;23.324;2023-12-20T11:33:08;84.97;;;44.47;;
13026;SDS011;6580;42.680;23.324;2023-12-20T11:35:35;83.43;;;42.30;;
13026;SDS011;6580;42.680;23.324;2023-12-20T11:38:03;83.67;;;43.20;;
13026;SDS011;6580;42.680;23.324;2023-12-20T11:40:34;95.53;;;47.33;;
13026;SDS011;6580;42.680;23.324;2023-12-20T11:43:02;85.10;;;45.67;;
13026;SDS011;6580;42.680;23.324;2023-12-20T11:45:31;94.57;;;47.10;;
13026;SDS011;6580;42.680;23.324;2023-12-20T11:48:00;80.80;;;44.33;;
13026;SDS011;6580;42.680;23.324;2023-12-20T11:50:29;87.53;;;46.67;;
13026;SDS011;6580;42.680;23.324;2023-12-20T11:52:56;86.53;;;45.83;;
13026;SDS011;6580;42.680;23.324;2023-12-20T11:55:24;79.60;;;45.17;;
13026;SDS011;6580;42.680;23.324;2023-12-20T11:57:53;84.87;;;43.67;;
13026;SDS011;6580;42.680;23.324;2023-12-20T12:00:19;76.20;;;42.00;;
13026;SDS011;6580;42.680;23.324;2023-12-20T12:02:56;79.43;;;44.10;;
13026;SDS011;6580;42.680;23.324;2023-12-20T12:05:24;68.90;;;41.17;;
13026;SDS011;6580;42.680;23.324;2023-12-20T12:07:52;65.30;;;41.70;;
13026;SDS011;6580;42.680;23.324;2023-12-20T12:10:20;73.73;;;42.87;;
13026;SDS011;6580;42.680;23.324;2023-12-20T12:12:47;67.00;;;40.23;;
13026;SDS011;6580;42.680;23.324;2023-12-20T12:15:21;67.40;;;42.67;;
13026;SDS011;6580;42.680;23.324;2023-12-20T12:17:52;70.97;;;42.80;;
13026;SDS011;6580;42.680;23.324;2023-12-20T12:20:21;73.33;;;44.47;;
13026;SDS011;6580;42.680;23.324;2023-12-20T12:22:57;70.67;;;46.03;;
13026;SDS011;6580;42.680;23.324;2023-12-20T12:25:24;78.60;;;46.43;;
13026;SDS011;6580;42.680;23.324;2023-12-20T12:27:51;70.23;;;42.40;;
13026;SDS011;6580;42.680;23.324;2023-12-20T12:30:21;71.03;;;45.90;;
13026;SDS011;6580;42.680;23.324;2023-12-20T12:32:50;70.37;;;44.00;;
13026;SDS011;6580;42.680;23.324;2023-12-20T12:35:19;79.00;;;45.57;;
13026;SDS011;6580;42.680;23.324;2023-12-20T12:37:47;76.43;;;43.23;;
13026;SDS011;6580;42.680;23.324;2023-12-20T12:40:15;76.70;;;45.17;;
13026;SDS011;6580;42.680;23.324;2023-12-20T12:42:43;76.33;;;44.77;;
13026;SDS011;6580;42.680;23.324;2023-12-20T12:45:11;79.63;;;44.90;;
13026;SDS011;6580;42.680;23.324;2023-12-20T12:47:40;73.63;;;43.93;;
13026;SDS011;6580;42.680;23.324;2023-12-20T12:50:08;81.87;;;45.57;;
13026;SDS011;6580;42.680;23.324;2023-12-20T12:52:35;92.77;;;48.53;;
13026;SDS011;6580;42.680;23.324;2023-12-20T12:55:02;84.80;;;47.03;;
13026;SDS011;6580;42.680;23.324;2023-12-20T12:57:30;85.90;;;49.10;;
13026;SDS011;6580;42.680;23.324;2023-12-20T12:59:58;88.47;;;47.07;;
13026;SDS011;6580;42.680;23.324;2023-12-20T13:02:28;82.03;;;46.40;;
13026;SDS011;6580;42.680;23.324;2023-12-20T13:04:57;86.97;;;45.07;;
13026;SDS011;6580;42.680;23.324;2023-12-20T13:07:26;78.40;;;43.60;;
13026;SDS011;6580;42.680;23.324;2023-12-20T13:09:53;81.40;;;44.30;;
13026;SDS011;6580;42.680;23.324;2023-12-20T13:12:20;82.93;;;45.70;;
13026;SDS011;6580;42.680;23.324;2023-12-20T13:14:47;80.90;;;45.00;;
13026;SDS011;6580;42.680;23.324;2023-12-20T13:17:14;87.27;;;46.53;;
13026;SDS011;6580;42.680;23.324;2023-12-20T13:19:42;83.03;;;46.10;;
13026;SDS011;6580;42.680;23.324;2023-12-20T13:22:11;96.87;;;48.27;;
13026;SDS011;6580;42.680;23.324;2023-12-20T13:24:38;89.90;;;48.23;;
13026;SDS011;6580;42.680;23.324;2023-12-20T13:27:05;90.63;;;46.90;;
13026;SDS011;6580;42.680;23.324;2023-12-20T13:29:32;107.37;;;50.63;;
13026;SDS011;6580;42.680;23.324;2023-12-20T13:32:00;104.83;;;50.20;;
13026;SDS011;6580;42.680;23.324;2023-12-20T13:34:28;102.50;;;51.83;;
13026;SDS011;6580;42.680;23.324;2023-12-20T13:36:56;93.77;;;50.67;;
13026;SDS011;6580;42.680;23.324;2023-12-20T13:39:24;91.70;;;48.33;;
13026;SDS011;6580;42.680;23.324;2023-12-20T13:41:52;100.63;;;50.77;;
13026;SDS011;6580;42.680;23.324;2023-12-20T13:44:19;100.73;;;47.93;;
13026;SDS011;6580;42.680;23.324;2023-12-20T13:46:46;98.13;;;49.60;;
13026;SDS011;6580;42.680;23.324;2023-12-20T13:49:14;100.07;;;50.63;;
13026;SDS011;6580;42.680;23.324;2023-12-20T13:51:41;115.80;;;52.23;;
13026;SDS011;6580;42.680;23.324;2023-12-20T13:54:08;102.57;;;50.70;;
13026;SDS011;6580;42.680;23.324;2023-12-20T13:56:38;95.70;;;48.97;;
13026;SDS011;6580;42.680;23.324;2023-12-20T13:59:05;96.83;;;46.00;;
13026;SDS011;6580;42.680;23.324;2023-12-20T14:01:32;94.67;;;47.47;;
13026;SDS011;6580;42.680;23.324;2023-12-20T14:04:00;95.07;;;48.50;;
13026;SDS011;6580;42.680;23.324;2023-12-20T14:06:27;100.37;;;47.07;;
13026;SDS011;6580;42.680;23.324;2023-12-20T14:08:55;97.47;;;46.13;;
13026;SDS011;6580;42.680;23.324;2023-12-20T14:11:22;105.57;;;49.07;;
13026;SDS011;6580;42.680;23.324;2023-12-20T14:13:52;96.50;;;47.87;;
13026;SDS011;6580;42.680;23.324;2023-12-20T14:16:22;91.20;;;46.73;;
13026;SDS011;6580;42.680;23.324;2023-12-20T14:18:50;108.33;;;50.03;;
13026;SDS011;6580;42.680;23.324;2023-12-20T14:21:17;106.60;;;48.63;;